Time;durP1;ratioP1;P1;durP2;ratioP2;P2;SDS_P1;SDS_P2;PMS_P1;PMS_P2;Temp;Humidity;BMP_temperature;BMP_pressure;BME280_temperature;BME280_humidity;BME280_pressure;Samples;Min_cycle;Max_cycle;Signal;HPM_P1;HPM_P2
2024/01/01 00:01:39;;;;;;;362.63;239.38;;;;;;;4.40;100.00;99751.44;5595429;31;34093;-74
2024/01/01 00:04:42;;;;;;;379.02;245.48;;;;;;;4.34;100.00;99758.06;5608500;31;34271;-74
2024/01/01 00:07:50;;;;;;;382.45;247.30;;;;;;;4.28;100.00;99763.88;5608389;31;34269;-73
2024/01/01 00:10:54;;;;;;;374.85;248.50;;;;;;;4.33;100.00;99758.22;5609663;31;34011;-75
2024/01/01 00:13:57;;;;;;;364.48;240.65;;;;;;;4.34;100.00;99758.06;5608324;31;34887;-73
2024/01/01 00:17:01;;;;;;;361.60;242.05;;;;;;;4.42;100.00;99749.47;5609076;31;34732;-73
2024/01/01 00:20:05;;;;;;;349.45;233.60;;;;;;;4.51;100.00;99745.97;5608916;31;34821;-73
2024/01/01 00:23:08;;;;;;;348.33;230.87;;;;;;;4.59;100.00;99753.97;5609041;31;33992;-73
2024/01/01 00:26:12;;;;;;;355.85;233.77;;;;;;;4.61;100.00;99744.13;5609183;31;34765;-74
2024/01/01 00:29:16;;;;;;;340.50;227.55;;;;;;;4.66;100.00;99741.91;5608807;31;34086;-74
2024/01/01 00:32:30;;;;;;;331.17;228.27;;;;;;;4.66;100.00;99744.53;5608261;31;34092;-73
2024/01/01 00:35:33;;;;;;;362.25;238.18;;;;;;;4.67;100.00;99738.31;5608550;31;34078;-73
2024/01/01 00:38:36;;;;;;;382.00;247.77;;;;;;;4.56;100.00;99733.22;5609422;31;34054;-72
2024/01/01 00:41:40;;;;;;;375.00;251.02;;;;;;;4.64;100.00;99738.59;5609023;31;34634;-73
2024/01/01 00:44:45;;;;;;;370.27;247.00;;;;;;;4.73;100.00;99731.66;5608939;31;34245;-73
2024/01/01 00:47:48;;;;;;;343.10;228.80;;;;;;;4.71;100.00;99723.91;5608412;31;34705;-72
2024/01/01 00:50:51;;;;;;;331.87;221.75;;;;;;;4.77;100.00;99727.75;5608831;31;33948;-73
2024/01/01 00:53:55;;;;;;;324.25;215.02;;;;;;;4.86;100.00;99723.41;5608768;31;34710;-73
2024/01/01 00:56:58;;;;;;;312.15;213.82;;;;;;;4.92;100.00;99731.53;5609168;31;34469;-74
2024/01/01 01:00:02;;;;;;;326.95;218.35;;;;;;;4.93;100.00;99722.69;5608703;31;34004;-74
2024/01/01 01:03:05;;;;;;;349.73;227.62;;;;;;;4.88;100.00;99727.56;5608473;31;34767;-74
2024/01/01 01:06:08;;;;;;;293.60;196.20;;;;;;;4.93;100.00;99730.56;5608798;31;34301;-74
2024/01/01 01:09:22;;;;;;;309.45;211.77;;;;;;;4.98;100.00;99717.81;5608670;31;34170;-74
2024/01/01 01:12:26;;;;;;;237.43;156.75;;;;;;;5.01;100.00;99714.03;5608734;31;34635;-73
2024/01/01 01:15:31;;;;;;;228.68;147.45;;;;;;;5.10;100.00;99713.16;5608526;31;34311;-74
2024/01/01 01:18:34;;;;;;;215.23;139.77;;;;;;;5.17;100.00;99708.97;5608664;31;34130;-73
2024/01/01 01:21:37;;;;;;;246.52;165.20;;;;;;;5.25;100.00;99701.13;5608717;31;34103;-74
2024/01/01 01:24:40;;;;;;;230.95;152.38;;;;;;;5.28;100.00;99700.03;5608586;31;34290;-74
2024/01/01 01:27:43;;;;;;;246.13;160.43;;;;;;;5.36;100.00;99700.91;5608992;31;34190;-74
2024/01/01 01:30:46;;;;;;;200.10;128.43;;;;;;;5.40;100.00;99693.53;5608549;31;34046;-74
2024/01/01 01:33:51;;;;;;;184.73;121.87;;;;;;;5.43;100.00;99699.31;5608345;31;34218;-74
2024/01/01 01:36:54;;;;;;;177.75;120.15;;;;;;;5.52;100.00;99695.78;5607652;31;34821;-74
2024/01/01 01:39:57;;;;;;;165.77;111.75;;;;;;;5.60;100.00;99695.03;5608660;31;34839;-74
2024/01/01 01:43:00;;;;;;;121.13;83.03;;;;;;;5.67;100.00;99693.41;5607542;31;34689;-74
2024/01/01 01:46:04;;;;;;;98.68;67.60;;;;;;;5.68;100.00;99688.03;5608218;31;34201;-74
2024/01/01 01:49:08;;;;;;;108.55;74.32;;;;;;;5.81;100.00;99687.59;5607628;31;34721;-73
2024/01/01 01:52:11;;;;;;;100.65;68.03;;;;;;;5.91;100.00;99677.84;5608263;31;34674;-73
2024/01/01 01:55:15;;;;;;;97.85;65.90;;;;;;;5.97;100.00;99687.75;5608242;31;34094;-73
2024/01/01 01:58:18;;;;;;;78.55;55.88;;;;;;;6.03;100.00;99686.31;5607359;31;33994;-74
2024/01/01 02:01:21;;;;;;;75.37;51.97;;;;;;;6.08;100.00;99681.41;5608171;31;34118;-74
2024/01/01 02:04:25;;;;;;;76.10;53.55;;;;;;;6.18;100.00;99671.59;5608124;31;34102;-73
2024/01/01 02:07:27;;;;;;;71.60;49.92;;;;;;;6.22;100.00;99674.72;5607973;31;34058;-73
2024/01/01 02:10:31;;;;;;;77.75;56.22;;;;;;;6.24;100.00;99675.41;5608025;31;34370;-73
2024/01/01 02:13:34;;;;;;;79.25;54.55;;;;;;;6.23;100.00;99673.75;5608009;31;34093;-73
2024/01/01 02:16:38;;;;;;;76.93;52.10;;;;;;;6.27;100.00;99675.06;5607692;31;35022;-74
2024/01/01 02:19:41;;;;;;;69.68;50.70;;;;;;;6.32;100.00;99675.44;5607796;31;33963;-74
2024/01/01 02:22:45;;;;;;;74.30;52.67;;;;;;;6.35;100.00;99664.56;5607725;31;34155;-74
2024/01/01 02:25:48;;;;;;;71.85;51.65;;;;;;;6.36;100.00;99651.25;5607744;31;33585;-73
2024/01/01 02:28:52;;;;;;;64.35;46.08;;;;;;;6.36;100.00;99647.78;5607650;31;34856;-73
2024/01/01 02:31:55;;;;;;;63.13;44.30;;;;;;;6.38;100.00;99637.94;5607746;31;34020;-74
2024/01/01 02:35:00;;;;;;;58.78;42.58;;;;;;;6.46;100.00;99630.03;5606933;31;34127;-74
2024/01/01 02:38:04;;;;;;;63.67;45.55;;;;;;;6.51;100.00;99630.38;5607646;31;34712;-74
2024/01/01 02:41:08;;;;;;;63.67;43.95;;;;;;;6.56;100.00;99620.19;5607477;31;34714;-74
2024/01/01 02:44:11;;;;;;;57.62;43.13;;;;;;;6.57;100.00;99613.13;5607551;31;34701;-74
2024/01/01 02:47:15;;;;;;;64.43;43.65;;;;;;;6.55;100.00;99622.00;5607293;31;34346;-75
2024/01/01 02:50:20;;;;;;;61.42;43.08;;;;;;;6.52;100.00;99613.59;5607314;31;34114;-74
2024/01/01 02:53:23;;;;;;;58.83;41.85;;;;;;;6.46;100.00;99608.97;5608318;31;34070;-74
2024/01/01 02:56:26;;;;;;;56.60;41.45;;;;;;;6.46;100.00;99606.31;5609140;31;34758;-74
2024/01/01 02:59:29;;;;;;;58.38;41.63;;;;;;;6.46;100.00;99608.97;5609436;31;34775;-74
2024/01/01 03:02:32;;;;;;;55.47;41.03;;;;;;;6.47;100.00;99605.34;5609892;31;34117;-75
2024/01/01 03:05:35;;;;;;;54.72;40.55;;;;;;;6.44;100.00;99600.38;5609997;31;34808;-73
2024/01/01 03:08:38;;;;;;;58.03;42.22;;;;;;;6.41;100.00;99596.28;5610199;31;34059;-74
2024/01/01 03:11:41;;;;;;;56.10;41.08;;;;;;;6.43;100.00;99596.13;5609893;31;34096;-73
2024/01/01 03:14:44;;;;;;;56.67;41.65;;;;;;;6.43;100.00;99589.06;5609794;31;35585;-73
2024/01/01 03:17:47;;;;;;;55.15;41.00;;;;;;;6.41;100.00;99598.91;5609522;31;35066;-74
2024/01/01 03:20:50;;;;;;;57.55;40.83;;;;;;;6.39;100.00;99585.06;5609806;31;34126;-73
2024/01/01 03:23:53;;;;;;;54.65;40.35;;;;;;;6.41;100.00;99595.44;5610342;31;33763;-74
2024/01/01 03:26:56;;;;;;;57.90;40.17;;;;;;;6.42;100.00;99590.03;5609647;31;34260;-75
2024/01/01 03:30:00;;;;;;;59.92;42.62;;;;;;;6.39;100.00;99590.31;5609809;31;34144;-74
2024/01/01 03:33:03;;;;;;;59.10;41.97;;;;;;;6.29;100.00;99596.75;5609804;31;34050;-74
2024/01/01 03:36:06;;;;;;;58.90;42.67;;;;;;;6.33;100.00;99600.69;5609735;31;34096;-74
2024/01/01 03:39:09;;;;;;;62.78;43.67;;;;;;;6.20;100.00;99597.66;5609216;31;34016;-73
2024/01/01 03:42:12;;;;;;;64.95;44.90;;;;;;;6.21;100.00;99607.22;5608764;31;34733;-72
2024/01/01 03:45:15;;;;;;;57.85;41.47;;;;;;;6.23;100.00;99611.38;5608920;31;34282;-73
2024/01/01 03:48:18;;;;;;;57.33;41.37;;;;;;;6.29;100.00;99608.09;5609272;31;34533;-73
2024/01/01 03:51:21;;;;;;;62.17;42.58;;;;;;;6.25;100.00;99596.22;5608719;31;34062;-73
2024/01/01 03:54:24;;;;;;;56.80;41.17;;;;;;;6.27;100.00;99590.78;5609412;31;35085;-73
2024/01/01 03:57:27;;;;;;;61.45;42.62;;;;;;;6.21;100.00;99579.09;5608605;31;34878;-73
2024/01/01 04:00:30;;;;;;;61.45;41.92;;;;;;;6.26;100.00;99575.97;5608650;31;34134;-73
2024/01/01 04:03:33;;;;;;;59.75;42.47;;;;;;;6.21;100.00;99565.09;5609537;31;35007;-73
2024/01/01 04:06:37;;;;;;;64.07;44.40;;;;;;;6.14;100.00;99562.28;5608823;31;34338;-73
2024/01/01 04:09:40;;;;;;;63.95;44.33;;;;;;;6.03;100.00;99549.41;5609143;31;34822;-73
2024/01/01 04:12:43;;;;;;;63.22;42.95;;;;;;;6.06;100.00;99547.25;5609213;31;34648;-73
2024/01/01 04:15:46;;;;;;;63.70;42.20;;;;;;;6.08;100.00;99539.22;5609496;31;34067;-73
2024/01/01 04:18:50;;;;;;;60.38;42.53;;;;;;;6.26;100.00;99552.25;5608223;31;35199;-73
2024/01/01 04:21:53;;;;;;;42.10;30.48;;;;;;;6.09;100.00;99549.59;5609036;31;35037;-73
2024/01/01 04:24:56;;;;;;;33.83;24.25;;;;;;;6.49;100.00;99554.13;5608371;31;34741;-73
2024/01/01 04:27:59;;;;;;;35.92;25.40;;;;;;;6.69;100.00;99540.66;5609363;31;34126;-73
2024/01/01 04:31:02;;;;;;;27.08;21.40;;;;;;;6.72;100.00;99542.97;5609061;31;34726;-73
2024/01/01 04:34:05;;;;;;;30.12;22.02;;;;;;;6.69;100.00;99541.47;5609083;31;34047;-73
2024/01/01 04:37:08;;;;;;;28.50;22.20;;;;;;;6.67;100.00;99543.47;5608973;31;34106;-72
2024/01/01 04:40:11;;;;;;;27.75;19.90;;;;;;;6.65;100.00;99544.59;5608270;31;34049;-72
2024/01/01 04:43:13;;;;;;;23.35;17.62;;;;;;;6.57;100.00;99547.25;5608090;31;34039;-72
2024/01/01 04:46:16;;;;;;;20.70;15.70;;;;;;;6.44;100.00;99548.50;5608943;31;33975;-72
2024/01/01 04:49:22;;;;;;;20.77;15.93;;;;;;;6.31;100.00;99558.69;5608653;31;34258;-72
2024/01/01 04:52:24;;;;;;;21.42;15.95;;;;;;;6.17;100.00;99566.41;5608815;31;34915;-73
2024/01/01 04:55:27;;;;;;;23.98;17.37;;;;;;;6.05;100.00;99579.03;5608092;31;34809;-73
2024/01/01 04:58:31;;;;;;;26.20;18.87;;;;;;;5.93;100.00;99593.44;5609078;31;34028;-73
2024/01/01 05:01:34;;;;;;;27.50;19.75;;;;;;;5.79;100.00;99583.47;5607900;31;34852;-72
2024/01/01 05:04:37;;;;;;;28.55;20.30;;;;;;;5.66;100.00;99589.19;5608662;31;34765;-72
2024/01/01 05:07:41;;;;;;;28.65;20.88;;;;;;;5.64;100.00;99594.59;5608676;31;35035;-72
2024/01/01 05:10:44;;;;;;;31.37;21.67;;;;;;;5.72;100.00;99599.06;5608778;31;34740;-72
2024/01/01 05:13:47;;;;;;;28.75;21.17;;;;;;;5.53;100.00;99584.31;5608569;31;34994;-72
2024/01/01 05:16:51;;;;;;;31.75;21.75;;;;;;;5.57;100.00;99592.72;5607357;31;34016;-73
2024/01/01 05:19:54;;;;;;;29.23;21.37;;;;;;;5.68;100.00;99593.28;5608113;31;34926;-72
2024/01/01 05:22:57;;;;;;;28.50;21.02;;;;;;;5.47;100.00;99608.59;5608955;31;34125;-72
2024/01/01 05:26:00;;;;;;;29.45;21.08;;;;;;;5.40;100.00;99601.50;5607750;31;34001;-72
2024/01/01 05:29:03;;;;;;;30.08;20.83;;;;;;;5.53;100.00;99594.00;5608868;31;34147;-72
2024/01/01 05:32:06;;;;;;;29.27;20.90;;;;;;;5.46;100.00;99595.63;5608649;31;33425;-72
2024/01/01 05:35:09;;;;;;;29.67;21.27;;;;;;;5.41;100.00;99584.72;5608392;31;34242;-72
2024/01/01 05:38:12;;;;;;;32.63;21.95;;;;;;;5.40;100.00;99588.34;5608799;31;33931;-73
2024/01/01 05:41:16;;;;;;;29.35;21.92;;;;;;;5.35;100.00;99598.50;5608294;31;34010;-72
2024/01/01 05:44:19;;;;;;;31.62;22.42;;;;;;;5.33;100.00;99603.88;5608455;31;34062;-74
2024/01/01 05:47:22;;;;;;;32.00;22.55;;;;;;;5.21;100.00;99589.34;5608133;31;34135;-73
2024/01/01 05:50:26;;;;;;;31.30;23.00;;;;;;;5.05;100.00;99581.31;5608251;31;34506;-74
2024/01/01 05:53:30;;;;;;;32.72;23.00;;;;;;;5.10;100.00;99586.94;5608169;31;34816;-74
2024/01/01 05:56:33;;;;;;;33.25;23.30;;;;;;;4.88;100.00;99588.25;5608165;31;35129;-73
2024/01/01 05:59:36;;;;;;;34.88;23.23;;;;;;;4.85;100.00;99585.09;5608500;31;34062;-74
2024/01/01 06:02:38;;;;;;;34.35;23.75;;;;;;;4.73;100.00;99589.75;5608083;31;34051;-74
2024/01/01 06:05:42;;;;;;;37.17;24.98;;;;;;;4.69;100.00;99585.78;5608188;31;34001;-74
2024/01/01 06:08:44;;;;;;;37.17;25.88;;;;;;;4.63;100.00;99575.88;5607771;31;34651;-74
2024/01/01 06:11:47;;;;;;;40.63;27.05;;;;;;;4.59;100.00;99569.28;5607950;31;34001;-74
2024/01/01 06:14:53;;;;;;;40.60;26.92;;;;;;;4.65;100.00;99571.28;5607950;31;34631;-73
2024/01/01 06:17:56;;;;;;;38.13;26.10;;;;;;;4.59;100.00;99566.63;5607772;31;34084;-73
2024/01/01 06:20:59;;;;;;;42.05;27.30;;;;;;;4.51;100.00;99563.91;5607769;31;34336;-73
2024/01/01 06:24:03;;;;;;;38.45;27.67;;;;;;;4.46;100.00;99572.25;5608112;31;34734;-73
2024/01/01 06:27:06;;;;;;;42.08;28.85;;;;;;;4.36;100.00;99574.09;5607738;31;34094;-73
2024/01/01 06:30:09;;;;;;;47.33;29.83;;;;;;;4.33;100.00;99579.66;5613934;31;34155;-73
2024/01/01 06:33:12;;;;;;;45.97;30.73;;;;;;;4.27;100.00;99582.87;5614269;31;34128;-73
2024/01/01 06:36:15;;;;;;;45.03;29.60;;;;;;;4.31;100.00;99563.22;5613241;31;34183;-73
2024/01/01 06:39:20;;;;;;;42.85;29.02;;;;;;;4.30;100.00;99554.53;5613862;31;34079;-73
2024/01/01 06:42:23;;;;;;;42.33;28.10;;;;;;;4.32;100.00;99568.31;5613000;31;34806;-74
2024/01/01 06:45:25;;;;;;;45.58;30.37;;;;;;;4.27;100.00;99580.25;5613719;31;34086;-72
2024/01/01 06:48:28;;;;;;;45.35;29.23;;;;;;;4.25;100.00;99588.28;5613491;31;34084;-73
2024/01/01 06:51:33;;;;;;;43.80;29.05;;;;;;;4.36;100.00;99592.47;5612756;31;35313;-73
2024/01/01 06:54:38;;;;;;;40.88;28.27;;;;;;;4.30;100.00;99586.03;5613684;31;34761;-73
2024/01/01 06:57:41;;;;;;;39.10;27.77;;;;;;;4.34;100.00;99591.81;5613505;31;34041;-73
2024/01/01 07:00:44;;;;;;;38.20;26.10;;;;;;;4.30;100.00;99591.28;5613708;31;34311;-74
2024/01/01 07:03:47;;;;;;;36.95;25.65;;;;;;;4.29;100.00;99586.19;5613169;31;33983;-73
2024/01/01 07:06:51;;;;;;;35.15;24.12;;;;;;;4.27;100.00;99588.94;5612520;31;33987;-74
2024/01/01 07:09:54;;;;;;;36.35;24.02;;;;;;;4.28;100.00;99585.34;5613129;31;34028;-73
2024/01/01 07:12:57;;;;;;;37.75;25.30;;;;;;;4.32;100.00;99593.75;5612460;31;34829;-73
2024/01/01 07:16:00;;;;;;;37.10;24.80;;;;;;;4.36;100.00;99606.44;5613710;31;35475;-73
2024/01/01 07:19:04;;;;;;;38.38;24.65;;;;;;;4.34;100.00;99602.31;5613088;31;34703;-74
2024/01/01 07:22:07;;;;;;;35.33;24.23;;;;;;;4.32;100.00;99612.13;5612983;31;34281;-73
2024/01/01 07:25:10;;;;;;;30.25;21.87;;;;;;;4.33;100.00;99622.50;5613011;31;34847;-73
2024/01/01 07:28:13;;;;;;;33.60;23.35;;;;;;;4.32;100.00;99636.59;5613148;31;35234;-72
2024/01/01 07:31:16;;;;;;;34.10;23.70;;;;;;;4.29;100.00;99636.91;5612819;31;34208;-72
2024/01/01 07:34:19;;;;;;;34.47;23.42;;;;;;;4.26;100.00;99639.78;5612691;31;34092;-73
2024/01/01 07:37:23;;;;;;;32.30;22.75;;;;;;;4.26;100.00;99658.16;5612721;31;34993;-72
2024/01/01 07:40:25;;;;;;;34.33;22.52;;;;;;;4.24;100.00;99651.44;5609106;31;34941;-73
2024/01/01 07:43:28;;;;;;;28.58;20.58;;;;;;;4.26;100.00;99665.25;5608498;31;34246;-73
2024/01/01 07:46:31;;;;;;;26.83;18.33;;;;;;;4.28;100.00;99674.63;5609212;31;35159;-72
2024/01/01 07:49:34;;;;;;;24.08;16.45;;;;;;;4.27;100.00;99680.00;5609261;31;34096;-73
2024/01/01 07:52:37;;;;;;;22.15;15.73;;;;;;;4.31;100.00;99686.63;5609127;31;34354;-73
2024/01/01 07:55:40;;;;;;;20.80;15.30;;;;;;;4.32;100.00;99685.66;5609470;31;34106;-73
2024/01/01 07:58:43;;;;;;;17.62;13.18;;;;;;;4.31;100.00;99682.19;5609296;31;35047;-73
2024/01/01 08:01:46;;;;;;;16.12;11.75;;;;;;;4.25;100.00;99693.28;5609071;31;34717;-73
2024/01/01 08:04:49;;;;;;;14.52;10.55;;;;;;;4.29;100.00;99693.81;5609071;31;33996;-74
2024/01/01 08:07:53;;;;;;;12.55;8.93;;;;;;;4.29;100.00;99699.91;5608887;31;34119;-73
2024/01/01 08:10:56;;;;;;;11.65;8.43;;;;;;;4.29;100.00;99710.41;5608980;31;35028;-73
2024/01/01 08:13:59;;;;;;;11.45;8.23;;;;;;;4.24;100.00;99712.63;5608549;31;34700;-73
2024/01/01 08:17:04;;;;;;;8.98;6.60;;;;;;;4.22;100.00;99705.84;5608170;31;34066;-73
2024/01/01 08:20:08;;;;;;;7.03;5.53;;;;;;;4.22;100.00;99703.25;5609097;31;34629;-73
2024/01/01 08:23:11;;;;;;;8.75;5.40;;;;;;;4.21;100.00;99709.47;5608951;31;35433;-73
2024/01/01 08:26:14;;;;;;;6.57;4.75;;;;;;;4.22;100.00;99719.00;5608901;31;33979;-73
2024/01/01 08:29:18;;;;;;;5.70;4.12;;;;;;;4.27;100.00;99728.09;5608878;31;34787;-73
2024/01/01 08:32:21;;;;;;;4.40;3.80;;;;;;;4.34;100.00;99726.56;5608884;31;34125;-73
2024/01/01 08:35:24;;;;;;;4.45;2.85;;;;;;;4.38;100.00;99719.22;5609219;31;34117;-72
2024/01/01 08:38:27;;;;;;;3.53;2.40;;;;;;;4.40;100.00;99722.53;5608888;31;34419;-72
2024/01/01 08:41:30;;;;;;;3.65;2.08;;;;;;;4.41;100.00;99711.03;5609229;31;33987;-73
2024/01/01 08:44:33;;;;;;;2.55;1.90;;;;;;;4.49;100.00;99711.16;5608734;31;33950;-72
2024/01/01 08:47:36;;;;;;;2.97;1.85;;;;;;;4.49;100.00;99711.16;5608923;31;34895;-72
2024/01/01 08:50:43;;;;;;;3.55;2.10;;;;;;;4.55;100.00;99707.12;5608754;31;34777;-73
2024/01/01 08:53:46;;;;;;;3.50;2.10;;;;;;;4.58;100.00;99717.34;5608882;31;34737;-74
2024/01/01 08:56:49;;;;;;;3.60;2.12;;;;;;;4.65;100.00;99711.34;5608959;31;34099;-73
2024/01/01 08:59:52;;;;;;;2.47;1.77;;;;;;;4.67;100.00;99717.28;5608900;31;35025;-73
2024/01/01 09:02:54;;;;;;;3.35;2.10;;;;;;;4.67;100.00;99716.47;5608260;31;34001;-73
2024/01/01 09:05:58;;;;;;;4.65;2.37;;;;;;;4.74;100.00;99710.44;5608799;31;34029;-73
2024/01/01 09:09:01;;;;;;;3.80;2.60;;;;;;;4.73;100.00;99744.78;5608713;31;34174;-74
2024/01/01 09:12:05;;;;;;;3.92;2.25;;;;;;;4.79;100.00;99744.22;5609126;31;34872;-73
2024/01/01 09:15:08;;;;;;;5.12;2.55;;;;;;;4.78;100.00;99729.41;5608542;31;34141;-74
2024/01/01 09:18:12;;;;;;;6.65;2.60;;;;;;;4.76;100.00;99740.06;5608482;31;34053;-73
2024/01/01 09:21:15;;;;;;;5.60;2.35;;;;;;;4.80;100.00;99722.19;5608740;31;34743;-73
2024/01/01 09:24:18;;;;;;;3.58;2.17;;;;;;;4.85;100.00;99714.69;5608490;31;34952;-74
2024/01/01 09:27:21;;;;;;;5.80;2.53;;;;;;;4.88;100.00;99727.56;5608698;31;34286;-73
2024/01/01 09:30:24;;;;;;;5.70;2.40;;;;;;;4.93;100.00;99719.22;5608509;31;34092;-74
2024/01/01 09:33:27;;;;;;;4.12;2.20;;;;;;;5.05;100.00;99724.13;5608584;31;34188;-73
2024/01/01 09:36:30;;;;;;;4.85;2.58;;;;;;;5.10;100.00;99719.22;5608727;31;34115;-73
2024/01/01 09:39:34;;;;;;;4.25;2.47;;;;;;;5.30;100.00;99711.19;5608551;31;34117;-73
2024/01/01 09:42:46;;;;;;;4.72;2.40;;;;;;;5.32;100.00;99710.09;5608553;31;34097;-73
2024/01/01 09:45:49;;;;;;;5.25;2.45;;;;;;;5.44;100.00;99726.44;5608466;31;34027;-73
2024/01/01 09:48:52;;;;;;;5.18;2.42;;;;;;;5.64;100.00;99730.59;5608608;31;34326;-74
2024/01/01 09:51:58;;;;;;;5.65;2.53;;;;;;;5.87;100.00;99725.69;5608390;31;34715;-74
2024/01/01 09:55:01;;;;;;;4.53;2.20;;;;;;;5.83;100.00;99706.72;5608199;31;34385;-72
2024/01/01 09:58:04;;;;;;;4.93;2.33;;;;;;;5.74;100.00;99698.91;5608411;31;34232;-71
2024/01/01 10:01:12;;;;;;;3.15;2.17;;;;;;;5.62;100.00;99708.84;5607379;31;34812;-72
2024/01/01 10:04:21;;;;;;;5.15;2.42;;;;;;;5.73;100.00;99716.50;5607185;31;33997;-72
2024/01/01 10:07:28;;;;;;;6.15;2.45;;;;;;;5.76;100.00;99729.34;5608182;31;34340;-74
2024/01/01 10:10:31;;;;;;;4.37;1.90;;;;;;;5.77;100.00;99722.28;5608144;31;34189;-72
2024/01/01 10:13:34;;;;;;;4.78;2.20;;;;;;;5.74;100.00;99723.44;5607944;31;35168;-73
2024/01/01 10:16:40;;;;;;;3.65;2.05;;;;;;;5.79;100.00;99720.34;5607845;31;34262;-74
2024/01/01 10:19:51;;;;;;;3.60;2.10;;;;;;;5.79;100.00;99736.13;5607873;31;34324;-73
2024/01/01 10:22:54;;;;;;;4.07;2.17;;;;;;;5.92;100.00;99749.75;5607634;31;34730;-74
2024/01/01 10:26:05;;;;;;;3.67;2.22;;;;;;;5.98;100.00;99733.34;5607479;31;34316;-74
2024/01/01 10:29:11;;;;;;;5.28;2.30;;;;;;;5.93;100.00;99744.34;5607897;31;34095;-72
2024/01/01 10:32:16;;;;;;;3.33;2.17;;;;;;;6.01;100.00;99743.56;5607505;31;34815;-73
2024/01/01 10:35:21;;;;;;;4.18;2.15;;;;;;;6.06;100.00;99743.91;5607561;31;34085;-74
2024/01/01 10:38:25;;;;;;;3.65;2.05;;;;;;;6.37;100.00;99741.66;5606796;31;34089;-73
2024/01/01 10:41:28;;;;;;;4.10;2.28;;;;;;;6.55;100.00;99742.41;5606769;31;33991;-73
2024/01/01 10:44:31;;;;;;;3.70;2.08;;;;;;;6.64;100.00;99730.91;5607294;31;34196;-74
2024/01/01 10:47:37;;;;;;;5.07;2.33;;;;;;;6.93;100.00;99741.06;5607692;31;34022;-73
2024/01/01 10:50:56;;;;;;;4.78;1.95;;;;;;;7.05;100.00;99731.06;5607367;31;35087;-73
2024/01/01 10:54:31;;;;;;;5.25;2.30;;;;;;;6.95;100.00;99718.84;5607256;31;34712;-73
2024/01/01 10:57:57;;;;;;;5.40;2.30;;;;;;;7.22;100.00;99725.63;5606488;31;34397;-72
2024/01/01 11:01:06;;;;;;;5.65;2.58;;;;;;;7.15;100.00;99729.94;5607188;31;34719;-72
2024/01/01 11:04:11;;;;;;;4.00;2.15;;;;;;;7.20;100.00;99727.63;5607066;31;35107;-72
2024/01/01 11:07:15;;;;;;;5.12;2.40;;;;;;;7.25;100.00;99732.41;5607139;31;34691;-72
2024/01/01 11:10:45;;;;;;;5.20;2.47;;;;;;;7.17;100.00;99719.19;5606798;31;34147;-72
2024/01/01 11:13:53;;;;;;;5.68;2.67;;;;;;;7.04;100.00;99721.47;5606346;31;34667;-72
2024/01/01 11:17:07;;;;;;;4.32;2.47;;;;;;;6.97;100.00;99726.59;5609243;31;34998;-73
2024/01/01 11:20:10;;;;;;;4.93;2.53;;;;;;;6.94;100.00;99729.53;5609658;31;34287;-73
2024/01/01 11:23:42;;;;;;;4.93;2.60;;;;;;;6.95;100.00;99723.28;5609495;31;34691;-73
2024/01/01 11:26:47;;;;;;;5.55;3.10;;;;;;;7.02;100.00;99734.03;5609601;31;34045;-72
2024/01/01 11:29:50;;;;;;;4.20;2.75;;;;;;;7.04;100.00;99732.03;5609416;31;35076;-72
2024/01/01 11:33:02;;;;;;;4.72;3.00;;;;;;;7.27;100.00;99735.69;5609489;31;35044;-70
2024/01/01 11:36:06;;;;;;;5.25;3.03;;;;;;;7.38;100.00;99741.50;5608959;31;34968;-72
2024/01/01 11:39:10;;;;;;;5.30;3.15;;;;;;;7.57;100.00;99748.28;5609413;31;34183;-73
2024/01/01 11:42:18;;;;;;;5.80;3.15;;;;;;;7.80;100.00;99748.44;5609620;31;34180;-75
2024/01/01 11:45:22;;;;;;;5.10;3.25;;;;;;;8.02;100.00;99754.91;5609420;31;34201;-74
2024/01/01 11:48:24;;;;;;;5.85;3.53;;;;;;;8.02;100.00;99763.66;5608198;31;34417;-73
2024/01/01 11:51:50;;;;;;;5.20;3.20;;;;;;;7.80;100.00;99770.41;5608792;31;34038;-73
2024/01/01 11:54:53;;;;;;;5.62;3.10;;;;;;;7.78;100.00;99772.41;5601405;31;34646;-75
2024/01/01 11:57:57;;;;;;;6.53;3.47;;;;;;;7.60;100.00;99769.06;5609496;31;33967;-73
2024/01/01 12:01:00;;;;;;;7.00;3.53;;;;;;;7.76;100.00;99770.91;5608870;31;34340;-73
2024/01/01 12:04:24;;;;;;;6.53;3.83;;;;;;;7.73;100.00;99773.88;5609339;31;34110;-73
2024/01/01 12:07:27;;;;;;;6.55;3.90;;;;;;;7.67;100.00;99769.25;5609072;31;34082;-74
2024/01/01 12:10:33;;;;;;;7.70;4.03;;;;;;;7.56;100.00;99762.47;5609465;31;34007;-73
2024/01/01 12:13:36;;;;;;;6.62;3.97;;;;;;;7.80;100.00;99770.41;5608392;31;34666;-73
2024/01/01 12:16:40;;;;;;;7.37;4.37;;;;;;;8.00;100.00;99770.06;5603600;31;176531;-74
2024/01/01 12:19:43;;;;;;;7.78;4.43;;;;;;;8.07;100.00;99779.81;5609115;31;34587;-72
2024/01/01 12:22:48;;;;;;;6.45;4.28;;;;;;;8.07;100.00;99771.91;5609230;31;34003;-73
2024/01/01 12:26:03;;;;;;;7.30;4.20;;;;;;;8.14;100.00;99780.78;5608628;31;34206;-73
2024/01/01 12:29:09;;;;;;;7.78;4.40;;;;;;;8.27;100.00;99791.69;5608892;31;34697;-73
2024/01/01 12:32:12;;;;;;;7.05;4.37;;;;;;;8.04;100.00;99768.75;5608559;31;35675;-73
2024/01/01 12:35:15;;;;;;;8.60;4.97;;;;;;;8.07;100.00;99763.97;5608887;31;35074;-73
2024/01/01 12:38:18;;;;;;;8.70;4.85;;;;;;;8.02;100.00;99757.53;5608911;31;34263;-73
2024/01/01 12:41:21;;;;;;;7.97;4.30;;;;;;;8.08;100.00;99757.69;5608077;31;33990;-73
2024/01/01 12:44:24;;;;;;;7.10;4.70;;;;;;;8.02;100.00;99754.91;5608811;31;34791;-73
2024/01/01 12:47:28;;;;;;;9.25;4.82;;;;;;;8.13;100.00;99762.47;5608836;31;34221;-72
2024/01/01 12:50:31;;;;;;;8.27;4.82;;;;;;;7.98;100.00;99766.78;5608817;31;34732;-74
2024/01/01 12:53:34;;;;;;;8.68;4.50;;;;;;;7.96;100.00;99766.13;5609080;31;34023;-73
2024/01/01 12:56:40;;;;;;;7.90;4.62;;;;;;;7.92;100.00;99768.28;5608515;31;33980;-73
2024/01/01 12:59:43;;;;;;;7.35;4.40;;;;;;;7.90;100.00;99761.50;5608095;31;34038;-73
2024/01/01 13:02:46;;;;;;;8.23;4.72;;;;;;;7.95;100.00;99765.28;5607978;31;34213;-71
2024/01/01 13:05:49;;;;;;;9.13;4.68;;;;;;;7.84;100.00;99766.44;5608180;31;34718;-72
2024/01/01 13:08:52;;;;;;;8.45;4.65;;;;;;;7.91;100.00;99779.81;5608135;31;33955;-73
2024/01/01 13:11:55;;;;;;;8.80;5.07;;;;;;;7.86;100.00;99780.31;5608515;31;34950;-74
2024/01/01 13:14:58;;;;;;;7.03;4.45;;;;;;;7.84;100.00;99779.66;5608844;31;34769;-72
2024/01/01 13:18:01;;;;;;;10.23;4.75;;;;;;;7.88;100.00;99793.38;5607446;31;34971;-73
2024/01/01 13:21:04;;;;;;;7.57;4.80;;;;;;;7.81;100.00;99798.47;5608739;31;34151;-72
2024/01/01 13:24:07;;;;;;;7.50;4.62;;;;;;;7.78;100.00;99809.38;5608282;31;34057;-72
2024/01/01 13:27:19;;;;;;;9.65;5.28;;;;;;;7.65;100.00;99805.56;5608725;31;34040;-73
2024/01/01 13:30:26;;;;;;;9.38;4.78;;;;;;;7.66;100.00;99812.47;5608378;31;35557;-72
2024/01/01 13:33:29;;;;;;;8.77;4.93;;;;;;;7.61;100.00;99812.13;5607253;31;35058;-72
2024/01/01 13:36:33;;;;;;;8.73;4.72;;;;;;;7.65;100.00;99822.19;5608345;31;34244;-72
2024/01/01 13:39:38;;;;;;;9.30;5.10;;;;;;;7.57;100.00;99824.84;5607352;31;34255;-74
2024/01/01 13:42:41;;;;;;;12.27;5.32;;;;;;;7.58;100.00;99844.12;5608451;31;33976;-72
2024/01/01 13:45:46;;;;;;;8.48;5.10;;;;;;;7.59;100.00;99837.88;5607308;31;34013;-72
2024/01/01 13:48:49;;;;;;;8.98;5.15;;;;;;;7.60;100.00;99837.69;5608158;31;34690;-74
2024/01/01 13:51:56;;;;;;;8.73;4.90;;;;;;;7.60;100.00;99834.25;5608046;31;34174;-74
2024/01/01 13:55:01;;;;;;;8.70;5.35;;;;;;;7.61;100.00;99846.44;5608326;31;34771;-74
2024/01/01 13:58:07;;;;;;;8.52;5.20;;;;;;;7.65;100.00;99847.81;5608069;31;34234;-74
2024/01/01 14:01:10;;;;;;;8.02;5.15;;;;;;;7.66;100.00;99854.72;5608010;31;34107;-73
2024/01/01 14:04:13;;;;;;;9.15;5.30;;;;;;;7.68;100.00;99850.09;5607727;31;34298;-73
2024/01/01 14:07:16;;;;;;;8.50;5.22;;;;;;;7.59;100.00;99856.34;5608266;31;34811;-73
2024/01/01 14:10:25;;;;;;;10.48;5.28;;;;;;;7.62;100.00;99858.66;5608305;31;34754;-73
2024/01/01 14:13:28;;;;;;;8.73;5.35;;;;;;;7.62;100.00;99867.41;5608046;31;34695;-73